Time;durP1;ratioP1;P1;durP2;ratioP2;P2;SDS_P1;SDS_P2;PMS_P1;PMS_P2;Temp;Humidity;BMP_temperature;BMP_pressure;BME280_temperature;BME280_humidity;BME280_pressure;Samples;Min_cycle;Max_cycle;Signal;HPM_P1;HPM_P2
2023/08/15 00:00:57;;;;;;;5.47;4.20;;;21.70;99.90;;;;;;5070325;28;20045;-62
2023/08/15 00:03:24;;;;;;;4.25;3.85;;;21.70;99.90;;;;;;5070549;28;20555;-61
2023/08/15 00:05:50;;;;;;;8.63;4.43;;;21.60;99.90;;;;;;5069152;28;20045;-61
2023/08/15 00:08:17;;;;;;;5.65;4.28;;;21.60;99.90;;;;;;5070759;28;20044;-61
2023/08/15 00:10:44;;;;;;;4.68;4.05;;;21.50;99.90;;;;;;5070138;28;20119;-61
2023/08/15 00:13:11;;;;;;;5.00;4.50;;;21.40;99.90;;;;;;5070525;28;20045;-61
2023/08/15 00:15:38;;;;;;;7.30;4.00;;;21.30;99.90;;;;;;5067432;28;20546;-61
2023/08/15 00:18:05;;;;;;;9.93;4.00;;;21.30;99.90;;;;;;5070533;28;20047;-61
2023/08/15 00:20:32;;;;;;;;;;;21.60;99.90;;;;;;5070670;28;20123;-61
2023/08/15 00:22:59;;;;;;;5.25;4.07;;;21.60;99.90;;;;;;5066925;28;19930;-61
2023/08/15 00:25:26;;;;;;;4.72;4.00;;;21.50;99.90;;;;;;5068401;28;20049;-60
2023/08/15 00:27:52;;;;;;;5.55;4.20;;;21.40;99.90;;;;;;5070452;28;20041;-61
2023/08/15 00:30:19;;;;;;;5.00;3.90;;;21.40;99.90;;;;;;5070024;28;20041;-61
2023/08/15 00:32:46;;;;;;;4.45;3.67;;;21.30;99.90;;;;;;5066989;28;20044;-59
2023/08/15 00:35:13;;;;;;;6.18;3.78;;;21.30;99.90;;;;;;5068331;28;20043;-62
2023/08/15 00:37:41;;;;;;;5.53;3.88;;;21.30;99.90;;;;;;5069131;28;20057;-61
2023/08/15 00:40:08;;;;;;;6.68;3.90;;;21.30;99.90;;;;;;5068924;28;20041;-62
2023/08/15 00:42:35;;;;;;;6.95;3.90;;;21.30;99.90;;;;;;5068293;28;20127;-60
2023/08/15 00:45:02;;;;;;;5.20;4.18;;;21.30;99.90;;;;;;5069848;28;20047;-62
2023/08/15 00:47:29;;;;;;;7.65;4.22;;;21.20;99.90;;;;;;5066884;28;20048;-62
2023/08/15 00:49:56;;;;;;;4.85;4.32;;;21.10;99.90;;;;;;5068878;28;20131;-61
2023/08/15 00:52:23;;;;;;;7.43;4.65;;;21.00;99.90;;;;;;5068475;28;20052;-62
2023/08/15 00:54:51;;;;;;;8.20;4.38;;;20.90;99.90;;;;;;5068349;28;20044;-61
2023/08/15 00:57:18;;;;;;;6.90;4.40;;;20.70;99.90;;;;;;5068060;28;20033;-61
2023/08/15 00:59:46;;;;;;;9.55;4.70;;;20.70;99.90;;;;;;5074094;28;20417;-61
2023/08/15 01:02:14;;;;;;;9.13;4.78;;;20.70;99.90;;;;;;5072032;28;20566;-60
2023/08/15 01:04:43;;;;;;;4.88;4.40;;;20.70;99.90;;;;;;5072130;28;20086;-61
2023/08/15 01:07:10;;;;;;;;;;;20.50;99.90;;;;;;5070529;28;20760;-61
2023/08/15 01:09:37;;;;;;;6.28;4.10;;;20.50;99.90;;;;;;5100481;28;19927;-61
2023/08/15 01:12:19;;;;;;;8.55;4.68;;;20.50;99.90;;;;;;5072061;28;20047;-61
2023/08/15 01:14:52;;;;;;;6.90;4.65;;;20.50;99.90;;;;;;5061841;28;20041;-61
2023/08/15 01:17:28;;;;;;;5.45;4.18;;;20.50;99.90;;;;;;5074143;28;20048;-61
2023/08/15 01:19:58;;;;;;;7.28;3.97;;;20.60;99.90;;;;;;5071907;28;20063;-61
2023/08/15 01:22:28;;;;;;;10.35;4.05;;;20.60;99.90;;;;;;5071547;28;20068;-61
2023/08/15 01:24:55;;;;;;;6.13;4.38;;;20.70;99.90;;;;;;5067519;28;20041;-61
2023/08/15 01:27:22;;;;;;;4.68;3.97;;;20.60;99.90;;;;;;5103185;28;20052;-61
2023/08/15 01:29:49;;;;;;;;;;;20.50;99.90;;;;;;5072725;28;20425;-61
2023/08/15 01:32:42;;;;;;;5.32;3.97;;;20.40;99.90;;;;;;5071696;28;20403;-61
2023/08/15 01:35:19;;;;;;;6.18;4.25;;;20.40;99.90;;;;;;5065277;28;20040;-61
2023/08/15 01:37:54;;;;;;;6.55;4.30;;;20.30;99.90;;;;;;5066259;28;20123;-61
2023/08/15 01:40:23;;;;;;;5.50;4.25;;;20.30;99.90;;;;;;5068138;28;22289;-62
2023/08/15 01:42:55;;;;;;;7.15;4.57;;;20.20;99.90;;;;;;5071861;28;20051;-61
2023/08/15 01:45:25;;;;;;;6.03;4.30;;;20.20;99.90;;;;;;5072048;28;20079;-61
2023/08/15 01:47:54;;;;;;;7.57;4.55;;;20.10;99.90;;;;;;5072276;28;20043;-61
2023/08/15 01:50:21;;;;;;;;;;;20.10;99.90;;;;;;5068899;28;20083;-61
2023/08/15 01:52:48;;;;;;;6.53;3.72;;;20.20;99.90;;;;;;5070539;28;19927;-62
2023/08/15 01:55:15;;;;;;;4.80;3.67;;;20.20;99.90;;;;;;5072941;28;20037;-61
2023/08/15 01:57:42;;;;;;;5.65;3.83;;;20.10;99.90;;;;;;5071368;28;20037;-61
2023/08/15 02:00:09;;;;;;;9.30;4.70;;;20.20;99.90;;;;;;5071623;28;20123;-61
2023/08/15 02:02:43;;;;;;;5.78;3.78;;;20.10;99.90;;;;;;5073341;28;20040;-61
2023/08/15 02:05:12;;;;;;;8.00;4.40;;;20.10;99.90;;;;;;5069642;28;20390;-61
2023/08/15 02:07:39;;;;;;;5.32;4.43;;;20.10;99.90;;;;;;5071633;28;20047;-62
2023/08/15 02:10:06;;;;;;;8.02;4.32;;;20.00;99.90;;;;;;5071760;28;20044;-61
2023/08/15 02:12:33;;;;;;;6.55;4.82;;;20.00;99.90;;;;;;5072764;28;20044;-61
2023/08/15 02:15:00;;;;;;;6.32;4.43;;;20.00;99.90;;;;;;5068000;28;20055;-61
2023/08/15 02:17:26;;;;;;;6.32;4.05;;;20.00;99.90;;;;;;5071566;28;20139;-60
2023/08/15 02:19:56;;;;;;;7.88;4.30;;;20.00;99.90;;;;;;5071070;28;20064;-61
2023/08/15 02:22:23;;;;;;;5.45;4.45;;;20.00;99.90;;;;;;5062098;28;20056;-61
2023/08/15 02:24:50;;;;;;;5.65;3.80;;;20.00;99.90;;;;;;5070321;28;20045;-61
2023/08/15 02:27:17;;;;;;;7.65;3.90;;;19.90;99.90;;;;;;5070933;28;20494;-61
2023/08/15 02:29:44;;;;;;;;;;;19.80;99.90;;;;;;5070948;28;20562;-61
2023/08/15 02:32:12;;;;;;;5.25;4.40;;;19.90;99.90;;;;;;5067402;28;20917;-61
2023/08/15 02:34:39;;;;;;;4.15;3.75;;;19.80;99.90;;;;;;5068671;28;20438;-61
2023/08/15 02:37:05;;;;;;;5.72;3.92;;;19.70;99.90;;;;;;5072374;28;20043;-61
2023/08/15 02:39:32;;;;;;;6.25;3.85;;;19.70;99.90;;;;;;5071839;28;20032;-61
2023/08/15 02:41:59;;;;;;;7.15;4.00;;;19.70;99.90;;;;;;5069994;28;20051;-61
2023/08/15 02:44:26;;;;;;;9.63;4.25;;;19.70;99.90;;;;;;5069964;28;20481;-61
2023/08/15 02:46:53;;;;;;;4.68;3.80;;;19.60;99.90;;;;;;5070649;28;20036;-61
2023/08/15 02:49:20;;;;;;;6.78;4.00;;;19.60;99.90;;;;;;5065710;28;20045;-59
2023/08/15 02:51:46;;;;;;;6.53;3.67;;;19.60;99.90;;;;;;5087083;28;20044;-61
2023/08/15 02:54:13;;;;;;;6.95;4.13;;;19.60;99.90;;;;;;5070942;28;20056;-60
2023/08/15 02:56:40;;;;;;;7.35;4.15;;;19.50;99.90;;;;;;5071867;28;20567;-61
2023/08/15 02:59:07;;;;;;;5.72;4.13;;;19.40;99.90;;;;;;5069166;28;20036;-61
2023/08/15 03:01:34;;;;;;;8.02;3.92;;;19.30;99.90;;;;;;5071734;28;20046;-61
2023/08/15 03:04:00;;;;;;;5.47;4.45;;;19.10;99.90;;;;;;5071211;28;20058;-61
2023/08/15 03:06:27;;;;;;;7.68;4.78;;;19.10;99.90;;;;;;5066701;28;20047;-61
2023/08/15 03:08:54;;;;;;;4.78;4.10;;;19.00;99.90;;;;;;5070081;28;20052;-61
2023/08/15 03:11:21;;;;;;;8.90;5.00;;;19.00;99.90;;;;;;5068295;28;20039;-61
2023/08/15 03:13:49;;;;;;;6.95;4.10;;;18.90;99.90;;;;;;5069046;28;20044;-61
2023/08/15 03:16:16;;;;;;;9.05;4.35;;;18.90;99.90;;;;;;5069767;28;20126;-59
2023/08/15 03:18:43;;;;;;;5.53;4.30;;;18.90;99.90;;;;;;5068933;28;20098;-61
2023/08/15 03:21:10;;;;;;;6.65;4.15;;;18.90;99.90;;;;;;5069841;28;20094;-61
2023/08/15 03:23:37;;;;;;;5.13;4.25;;;18.80;99.90;;;;;;5070427;28;20048;-61
2023/08/15 03:26:04;;;;;;;8.40;4.38;;;18.70;99.90;;;;;;5070166;28;20413;-61
2023/08/15 03:28:34;;;;;;;12.15;4.68;;;18.70;99.90;;;;;;5065222;28;20080;-61
2023/08/15 03:31:08;;;;;;;7.85;4.82;;;18.60;99.90;;;;;;5079403;28;20055;-61
2023/08/15 03:33:44;;;;;;;9.65;4.82;;;18.50;99.90;;;;;;5069025;28;20049;-61
2023/08/15 03:36:12;;;;;;;6.80;4.03;;;18.50;99.90;;;;;;5068857;28;20032;-61
2023/08/15 03:38:41;;;;;;;9.75;4.50;;;18.40;99.90;;;;;;5069164;28;20098;-61
2023/08/15 03:41:07;;;;;;;8.80;4.47;;;18.40;99.90;;;;;;5069061;28;20055;-61
2023/08/15 03:43:35;;;;;;;6.45;4.65;;;18.30;99.90;;;;;;5060968;28;20385;-61
2023/08/15 03:46:03;;;;;;;8.45;3.88;;;18.40;99.90;;;;;;5069422;28;20048;-61
2023/08/15 03:48:33;;;;;;;6.60;4.63;;;18.50;99.90;;;;;;5069816;28;20041;-61
2023/08/15 03:51:00;;;;;;;;;;;18.50;99.90;;;;;;5068160;28;20040;-59
2023/08/15 03:53:27;;;;;;;6.03;4.05;;;18.50;99.90;;;;;;5071136;28;20359;-61
2023/08/15 03:55:55;;;;;;;7.65;4.85;;;18.40;99.90;;;;;;5068348;28;20037;-61
2023/08/15 03:58:23;;;;;;;6.97;4.13;;;18.30;99.90;;;;;;5070117;28;20041;-61
2023/08/15 04:00:51;;;;;;;6.28;4.38;;;18.30;99.90;;;;;;5068731;28;20045;-61
2023/08/15 04:03:18;;;;;;;8.38;4.22;;;18.20;99.90;;;;;;5071221;28;20107;-61
2023/08/15 04:05:46;;;;;;;6.43;4.32;;;18.20;99.90;;;;;;5066505;28;20044;-61
2023/08/15 04:08:15;;;;;;;6.90;4.68;;;18.20;99.90;;;;;;5069314;28;20048;-61
2023/08/15 04:10:48;;;;;;;7.65;4.82;;;18.10;99.90;;;;;;5067761;28;20072;-60
2023/08/15 04:13:16;;;;;;;6.40;5.20;;;18.10;99.90;;;;;;5069694;28;20064;-60
2023/08/15 04:15:45;;;;;;;8.48;4.85;;;18.10;99.90;;;;;;5067385;28;20076;-61
2023/08/15 04:18:12;;;;;;;6.47;4.68;;;18.10;99.90;;;;;;5069700;28;20028;-61
2023/08/15 04:20:41;;;;;;;9.57;5.00;;;18.10;99.90;;;;;;5068614;28;20139;-61
2023/08/15 04:23:09;;;;;;;6.20;4.22;;;18.00;99.90;;;;;;5065162;28;20421;-62
2023/08/15 04:25:38;;;;;;;7.53;4.22;;;18.00;99.90;;;;;;5068402;28;20068;-61
2023/08/15 04:28:05;;;;;;;4.90;4.40;;;18.00;99.90;;;;;;5069239;28;20067;-61
2023/08/15 04:30:34;;;;;;;5.22;4.50;;;18.10;99.90;;;;;;5069138;28;20163;-61
2023/08/15 04:33:01;;;;;;;6.18;4.30;;;18.00;99.90;;;;;;5062983;28;20048;-60
2023/08/15 04:35:28;;;;;;;;;;;18.10;99.90;;;;;;5074526;28;20044;-61
2023/08/15 04:37:56;;;;;;;10.75;4.70;;;18.10;99.90;;;;;;5066679;28;19935;-61
2023/08/15 04:40:40;;;;;;;;;;;18.20;99.90;;;;;;5073260;28;20481;-61
2023/08/15 04:43:08;;;;;;;10.38;4.45;;;18.20;99.90;;;;;;5064783;28;19924;-61
2023/08/15 04:45:43;;;;;;;7.38;4.57;;;18.20;99.90;;;;;;5066071;28;20146;-61
2023/08/15 04:48:12;;;;;;;7.03;4.65;;;18.30;99.90;;;;;;5065410;28;20044;-61
2023/08/15 04:50:39;;;;;;;7.18;4.93;;;18.30;99.90;;;;;;5072730;28;20046;-61
2023/08/15 04:53:06;;;;;;;;;;;18.40;99.90;;;;;;5072250;28;20489;-60
2023/08/15 04:55:35;;;;;;;6.40;4.32;;;18.40;99.90;;;;;;5072453;28;19982;-61
2023/08/15 04:58:02;;;;;;;7.78;4.45;;;18.50;99.90;;;;;;5072900;28;20504;-61
2023/08/15 05:00:29;;;;;;;11.82;4.40;;;18.50;99.90;;;;;;5070106;28;20064;-61
2023/08/15 05:03:00;;;;;;;8.32;4.88;;;18.50;99.90;;;;;;5071701;28;20421;-61
2023/08/15 05:05:27;;;;;;;7.75;4.50;;;18.50;99.90;;;;;;5070721;28;20063;-61
2023/08/15 05:07:54;;;;;;;6.45;4.35;;;18.50;99.90;;;;;;5071962;28;20413;-61
2023/08/15 05:10:22;;;;;;;10.95;5.03;;;18.50;99.90;;;;;;5071988;28;20041;-61
2023/08/15 05:12:49;;;;;;;7.97;5.40;;;18.50;99.90;;;;;;5071532;28;20040;-61
2023/08/15 05:15:15;;;;;;;6.13;4.30;;;18.50;99.90;;;;;;5070449;28;20045;-61
2023/08/15 05:17:43;;;;;;;5.15;4.50;;;18.50;99.90;;;;;;5071822;28;20052;-61
2023/08/15 05:20:12;;;;;;;8.27;4.55;;;18.50;99.90;;;;;;5071626;28;20135;-61
2023/08/15 05:22:39;;;;;;;6.47;4.65;;;18.60;99.90;;;;;;5073325;28;20044;-61
2023/08/15 05:25:06;;;;;;;12.38;5.43;;;18.60;99.90;;;;;;5065386;28;20602;-61
2023/08/15 05:27:39;;;;;;;8.85;4.85;;;18.60;99.90;;;;;;5071420;28;20052;-61
2023/08/15 05:30:07;;;;;;;8.75;4.60;;;18.60;99.90;;;;;;5062994;28;20086;-61
2023/08/15 05:32:34;;;;;;;6.72;4.85;;;18.70;99.90;;;;;;5071801;28;20127;-61
2023/08/15 05:35:01;;;;;;;7.55;5.20;;;18.70;99.90;;;;;;5071239;28;20036;-61
2023/08/15 05:37:28;;;;;;;6.45;4.80;;;18.80;99.90;;;;;;5071338;28;20055;-61
2023/08/15 05:39:55;;;;;;;6.90;4.88;;;18.80;99.90;;;;;;5087256;28;20036;-61
2023/08/15 05:42:21;;;;;;;5.45;4.57;;;18.90;99.90;;;;;;5067005;28;20043;-61
2023/08/15 05:44:49;;;;;;;7.32;4.93;;;19.00;99.90;;;;;;5059901;28;20123;-61
2023/08/15 05:47:16;;;;;;;6.32;4.93;;;19.00;99.90;;;;;;5072377;28;20054;-61
2023/08/15 05:49:43;;;;;;;6.20;4.50;;;19.00;99.90;;;;;;5071871;28;20052;-61
2023/08/15 05:52:10;;;;;;;5.65;4.72;;;19.10;99.90;;;;;;5072866;28;20094;-61
2023/08/15 05:54:36;;;;;;;;;;;19.10;99.90;;;;;;5065875;28;20536;-62
2023/08/15 05:57:04;;;;;;;7.65;4.28;;;19.20;99.90;;;;;;5067038;28;19928;-61
2023/08/15 05:59:31;;;;;;;6.85;5.03;;;19.30;99.90;;;;;;5073079;28;20071;-61
2023/08/15 06:01:59;;;;;;;9.77;4.78;;;19.40;99.90;;;;;;5070919;28;20063;-61
2023/08/15 06:04:26;;;;;;;7.75;4.90;;;19.50;99.90;;;;;;5072736;28;20051;-61
2023/08/15 06:06:53;;;;;;;9.50;5.30;;;19.50;99.90;;;;;;5062871;28;20033;-61
2023/08/15 06:09:19;;;;;;;6.25;5.30;;;19.60;99.90;;;;;;5065935;28;20036;-61
2023/08/15 06:11:46;;;;;;;5.22;4.72;;;19.60;99.90;;;;;;5071067;28;20047;-62
2023/08/15 06:14:13;;;;;;;9.65;5.07;;;19.70;99.90;;;;;;5072112;28;20037;-61
2023/08/15 06:16:39;;;;;;;6.07;4.38;;;19.70;99.90;;;;;;5066486;28;20048;-61
2023/08/15 06:19:06;;;;;;;6.65;4.75;;;19.70;99.90;;;;;;5072661;28;20032;-61
2023/08/15 06:21:33;;;;;;;5.20;4.57;;;19.70;99.90;;;;;;5071987;28;20032;-61
2023/08/15 06:24:00;;;;;;;6.32;5.03;;;19.80;99.90;;;;;;5072273;28;20048;-61
2023/08/15 06:26:27;;;;;;;10.80;4.93;;;20.00;99.90;;;;;;5069631;28;20055;-61
2023/08/15 06:28:53;;;;;;;8.13;5.50;;;20.20;99.90;;;;;;5071242;28;20461;-61
2023/08/15 06:31:21;;;;;;;7.18;4.68;;;20.20;99.90;;;;;;5070657;28;20028;-61
2023/08/15 06:33:47;;;;;;;5.38;4.65;;;20.30;99.90;;;;;;5066909;28;20347;-59
2023/08/15 06:36:14;;;;;;;8.43;5.43;;;20.40;99.90;;;;;;5072273;28;20477;-61
2023/08/15 06:38:41;;;;;;;8.18;4.93;;;20.60;99.90;;;;;;5072268;28;20052;-61
2023/08/15 06:41:08;;;;;;;7.10;5.22;;;20.80;99.90;;;;;;5072584;28;20044;-61
2023/08/15 06:43:34;;;;;;;6.57;4.78;;;20.80;99.90;;;;;;5069632;28;20043;-61
2023/08/15 06:46:01;;;;;;;10.70;4.95;;;20.90;99.90;;;;;;5071863;28;20059;-61
2023/08/15 06:48:28;;;;;;;6.80;5.28;;;21.00;99.90;;;;;;5062727;28;20044;-61
2023/08/15 06:50:55;;;;;;;11.23;5.28;;;21.10;99.90;;;;;;5071943;28;20052;-61
2023/08/15 06:53:22;;;;;;;4.97;4.47;;;21.20;99.90;;;;;;5070868;28;20033;-61
2023/08/15 06:55:49;;;;;;;7.50;4.72;;;21.50;99.90;;;;;;5068352;28;20502;-61
2023/08/15 06:58:17;;;;;;;6.18;4.80;;;21.70;99.90;;;;;;5069822;28;20048;-61
2023/08/15 07:00:46;;;;;;;7.40;4.32;;;21.80;99.90;;;;;;5072032;28;20082;-61
2023/08/15 07:03:15;;;;;;;5.78;4.78;;;21.90;99.90;;;;;;5071151;28;20072;-61
2023/08/15 07:05:43;;;;;;;7.00;5.20;;;22.00;99.90;;;;;;5072073;28;20045;-61
2023/08/15 07:08:10;;;;;;;;;;;21.90;99.90;;;;;;5071307;28;20059;-61
2023/08/15 07:10:37;;;;;;;8.88;4.72;;;22.10;99.90;;;;;;5070773;28;20297;-61
2023/08/15 07:13:03;;;;;;;8.75;4.85;;;22.30;99.90;;;;;;5069057;28;20055;-61
2023/08/15 07:15:31;;;;;;;5.63;5.00;;;22.40;99.90;;;;;;5071126;28;20040;-61
2023/08/15 07:17:58;;;;;;;;;;;22.60;99.90;;;;;;5070715;28;20036;-59
2023/08/15 07:20:26;;;;;;;5.80;4.45;;;22.70;99.90;;;;;;5069441;28;20003;-60
2023/08/15 07:22:55;;;;;;;8.18;4.65;;;22.80;99.90;;;;;;5069277;28;20119;-61
2023/08/15 07:25:22;;;;;;;7.38;4.40;;;22.90;99.90;;;;;;5068770;28;20051;-60
2023/08/15 07:27:49;;;;;;;5.03;4.50;;;23.10;99.90;;;;;;5070746;28;20047;-61
2023/08/15 07:30:16;;;;;;;5.75;5.00;;;23.20;99.90;;;;;;5069687;28;20056;-60
2023/08/15 07:32:43;;;;;;;5.97;4.80;;;23.30;99.90;;;;;;5070841;28;20055;-61
2023/08/15 07:35:10;;;;;;;8.80;4.32;;;23.30;99.90;;;;;;5070069;28;20045;-61
2023/08/15 07:37:36;;;;;;;6.15;4.53;;;23.40;99.90;;;;;;5067980;28;20044;-61
2023/08/15 07:40:09;;;;;;;8.73;4.80;;;23.50;99.90;;;;;;5071010;28;20032;-60
2023/08/15 07:42:36;;;;;;;5.88;4.78;;;23.60;99.90;;;;;;5070519;28;20040;-59
2023/08/15 07:45:03;;;;;;;;;;;23.70;99.90;;;;;;5070793;28;20042;-61
2023/08/15 07:47:34;;;;;;;7.90;5.45;;;23.80;99.90;;;;;;5069171;28;19920;-61
2023/08/15 07:50:15;;;;;;;5.60;5.10;;;23.80;99.90;;;;;;5066663;28;20048;-60
2023/08/15 07:52:43;;;;;;;5.82;4.97;;;23.90;99.90;;;;;;5068339;28;20036;-61
2023/08/15 07:55:10;;;;;;;6.75;5.00;;;24.00;99.90;;;;;;5059881;28;20062;-59
2023/08/15 07:57:38;;;;;;;7.72;4.93;;;24.00;99.90;;;;;;5058777;28;20046;-61
2023/08/15 08:00:06;;;;;;;5.65;4.90;;;24.10;99.90;;;;;;5070655;28;20048;-59
2023/08/15 08:02:38;;;;;;;6.25;4.55;;;24.20;99.90;;;;;;5070707;28;20051;-61
2023/08/15 08:05:07;;;;;;;6.55;4.70;;;24.30;99.90;;;;;;5061517;28;20098;-61
2023/08/15 08:07:34;;;;;;;5.68;4.63;;;24.30;99.90;;;;;;5069847;28;20551;-61
2023/08/15 08:10:01;;;;;;;6.20;4.78;;;24.30;99.90;;;;;;5067189;28;20477;-61
2023/08/15 08:12:29;;;;;;;;;;;24.40;99.90;;;;;;5070859;28;20036;-61
2023/08/15 08:14:56;;;;;;;7.00;5.03;;;24.60;99.90;;;;;;5069792;28;19920;-60
2023/08/15 08:17:24;;;;;;;5.43;4.75;;;24.80;99.90;;;;;;5064695;28;20037;-61
2023/08/15 08:19:51;;;;;;;5.47;4.63;;;24.80;99.90;;;;;;5063322;28;20045;-58
2023/08/15 08:22:18;;;;;;;7.30;5.20;;;25.00;99.90;;;;;;5070267;28;20053;-61
2023/08/15 08:24:48;;;;;;;7.40;4.80;;;25.10;99.90;;;;;;5064662;28;20095;-60
2023/08/15 08:27:15;;;;;;;6.43;4.90;;;25.20;99.90;;;;;;5070533;28;20454;-60
2023/08/15 08:29:41;;;;;;;6.30;4.68;;;25.10;99.90;;;;;;5069470;28;20040;-62
2023/08/15 08:32:08;;;;;;;5.60;4.75;;;25.40;99.90;;;;;;5070927;28;20402;-62
2023/08/15 08:34:35;;;;;;;7.00;4.68;;;25.40;99.90;;;;;;5062399;28;20789;-61
2023/08/15 08:37:02;;;;;;;8.75;5.35;;;25.50;99.90;;;;;;5070770;28;20051;-61
2023/08/15 08:39:28;;;;;;;5.97;5.25;;;25.50;99.90;;;;;;5069343;28;20630;-61
2023/08/15 08:41:59;;;;;;;6.00;5.03;;;25.40;99.90;;;;;;5068617;28;20571;-61
2023/08/15 08:44:27;;;;;;;5.65;5.05;;;25.50;99.90;;;;;;5061587;28;20043;-61
2023/08/15 08:46:54;;;;;;;7.40;4.90;;;25.60;99.90;;;;;;5064079;28;20059;-61
2023/08/15 08:49:25;;;;;;;7.38;5.13;;;25.80;99.90;;;;;;5069087;28;20044;-61
2023/08/15 08:51:52;;;;;;;5.72;5.03;;;25.90;99.90;;;;;;5070456;28;20563;-60
2023/08/15 08:54:19;;;;;;;5.28;4.88;;;26.00;99.90;;;;;;5067571;28;20047;-61
2023/08/15 08:57:04;;;;;;;5.72;5.13;;;26.10;99.90;;;;;;5066907;28;21528;-61
2023/08/15 08:59:32;;;;;;;8.40;4.60;;;26.20;99.90;;;;;;5066480;28;20035;-61
2023/08/15 09:01:59;;;;;;;5.25;4.75;;;26.20;99.90;;;;;;5069245;28;20046;-60
2023/08/15 09:04:26;;;;;;;7.10;4.70;;;26.30;99.90;;;;;;5067505;28;20032;-59
2023/08/15 09:06:54;;;;;;;5.75;5.15;;;26.30;99.90;;;;;;5066935;28;20036;-60
2023/08/15 09:09:20;;;;;;;5.20;4.70;;;26.10;99.90;;;;;;5069448;28;20560;-59
2023/08/15 09:11:47;;;;;;;5.50;5.00;;;26.10;99.90;;;;;;5070316;28;20051;-61
2023/08/15 09:14:16;;;;;;;5.57;5.07;;;26.20;99.90;;;;;;5068984;28;20124;-61
2023/08/15 09:16:49;;;;;;;5.90;4.82;;;26.50;99.90;;;;;;5070086;28;20039;-61
2023/08/15 09:19:16;;;;;;;7.63;5.25;;;26.30;99.90;;;;;;5066114;28;20033;-62
2023/08/15 09:21:43;;;;;;;6.43;5.03;;;26.80;99.90;;;;;;5073935;28;20053;-61
2023/08/15 09:24:10;;;;;;;5.40;4.90;;;27.20;99.90;;;;;;5071720;28;20041;-61
2023/08/15 09:26:38;;;;;;;6.45;5.45;;;27.60;99.90;;;;;;5070382;28;20037;-61
2023/08/15 09:29:05;;;;;;;6.97;5.18;;;27.40;99.90;;;;;;5070008;28;20045;-61
2023/08/15 09:31:32;;;;;;;7.70;5.10;;;27.10;99.90;;;;;;5069718;28;20128;-61
2023/08/15 09:33:59;;;;;;;6.55;5.35;;;27.00;99.90;;;;;;5072829;28;20044;-61
2023/08/15 09:36:26;;;;;;;;;;;27.20;99.90;;;;;;5073154;28;20040;-62
2023/08/15 09:38:57;;;;;;;7.43;4.73;;;27.60;99.90;;;;;;5073484;28;19920;-62
2023/08/15 09:41:25;;;;;;;9.18;5.13;;;28.00;99.90;;;;;;5068118;28;20053;-61
2023/08/15 09:43:54;;;;;;;6.82;4.75;;;28.40;99.90;;;;;;5065710;28;20056;-62
2023/08/15 09:46:21;;;;;;;5.43;4.93;;;28.50;99.90;;;;;;5071452;28;20041;-61
2023/08/15 09:48:49;;;;;;;8.85;5.30;;;28.60;99.90;;;;;;5073389;28;20047;-61
2023/08/15 09:51:17;;;;;;;7.13;4.95;;;28.60;99.90;;;;;;5072354;28;20032;-61
2023/08/15 09:53:46;;;;;;;5.65;5.15;;;28.70;99.90;;;;;;5069709;28;20055;-61
2023/08/15 09:56:13;;;;;;;7.00;5.35;;;28.50;99.90;;;;;;5071146;28;20040;-62
2023/08/15 09:58:40;;;;;;;5.75;4.90;;;28.60;99.90;;;;;;5072474;28;20052;-61
2023/08/15 10:01:08;;;;;;;;;;;28.60;99.90;;;;;;5070624;28;20043;-61
2023/08/15 10:03:37;;;;;;;6.18;5.40;;;28.40;99.90;;;;;;5071584;28;20008;-62
2023/08/15 10:06:09;;;;;;;7.75;5.47;;;28.40;99.90;;;;;;5069927;28;20037;-64
2023/08/15 10:08:40;;;;;;;6.57;4.95;;;28.50;99.90;;;;;;5065457;28;20056;-62
2023/08/15 10:11:09;;;;;;;8.25;5.22;;;28.40;99.90;;;;;;5069220;28;20044;-61
2023/08/15 10:13:38;;;;;;;8.32;5.57;;;28.10;99.90;;;;;;5071810;28;20036;-61
2023/08/15 10:16:14;;;;;;;6.13;5.53;;;27.90;99.90;;;;;;5071405;28;20048;-61
2023/08/15 10:18:53;;;;;;;11.80;5.72;;;27.90;99.90;;;;;;5070147;28;20520;-61
2023/08/15 10:21:19;;;;;;;8.15;5.50;;;27.90;99.90;;;;;;5068784;28;20051;-61
2023/08/15 10:23:46;;;;;;;;;;;28.10;99.90;;;;;;5071412;28;20424;-62
2023/08/15 10:26:13;;;;;;;9.20;5.50;;;28.40;99.90;;;;;;5070810;28;19942;-62
2023/08/15 10:28:41;;;;;;;7.07;5.55;;;28.50;99.90;;;;;;5070758;28;20053;-61
2023/08/15 10:31:08;;;;;;;8.40;5.72;;;28.40;99.90;;;;;;5069395;28;20124;-62
2023/08/15 10:33:35;;;;;;;5.55;5.05;;;28.40;99.90;;;;;;5071427;28;20112;-62
2023/08/15 10:36:02;;;;;;;9.23;5.45;;;28.50;99.90;;;;;;5071149;28;20047;-61
2023/08/15 10:38:52;;;;;;;6.70;5.18;;;28.50;99.90;;;;;;5069695;28;20040;-62
2023/08/15 10:41:19;;;;;;;7.55;5.25;;;28.40;99.90;;;;;;5070853;28;20489;-62
2023/08/15 10:43:54;;;;;;;5.57;5.07;;;28.50;99.90;;;;;;5070077;28;20039;-62
2023/08/15 10:46:29;;;;;;;6.95;5.45;;;28.60;99.90;;;;;;5070549;28;20044;-62
2023/08/15 10:49:09;;;;;;;7.38;5.35;;;28.60;99.90;;;;;;5069559;28;20032;-62
2023/08/15 10:51:38;;;;;;;7.80;5.22;;;28.70;99.90;;;;;;5068003;28;20067;-62
2023/08/15 10:54:06;;;;;;;10.00;4.85;;;28.80;99.90;;;;;;5070652;28;20090;-62
2023/08/15 10:56:36;;;;;;;6.10;5.43;;;28.90;99.90;;;;;;5070962;28;20036;-62
2023/08/15 10:59:12;;;;;;;7.07;5.50;;;29.10;99.90;;;;;;5069368;28;20033;-61
2023/08/15 11:01:41;;;;;;;6.60;5.45;;;29.00;99.90;;;;;;5065145;28;20167;-61
2023/08/15 11:04:12;;;;;;;6.43;5.82;;;29.00;99.90;;;;;;5070582;28;20041;-61
2023/08/15 11:06:47;;;;;;;6.68;5.38;;;29.00;99.90;;;;;;5069903;28;20049;-61
2023/08/15 11:09:15;;;;;;;9.30;5.38;;;29.00;99.90;;;;;;5067619;28;20047;-62
2023/08/15 11:11:44;;;;;;;8.88;5.68;;;29.20;99.90;;;;;;5068100;28;20064;-62
2023/08/15 11:14:16;;;;;;;6.18;5.53;;;29.20;99.90;;;;;;5070275;28;20044;-62
2023/08/15 11:16:47;;;;;;;7.75;5.80;;;29.20;99.90;;;;;;5068020;28;20041;-62
2023/08/15 11:19:18;;;;;;;7.10;5.30;;;29.20;99.90;;;;;;5069102;28;20521;-62
2023/08/15 11:21:47;;;;;;;5.85;5.35;;;29.30;99.90;;;;;;5068963;28;20051;-62
2023/08/15 11:24:13;;;;;;;8.77;5.32;;;29.40;99.90;;;;;;5068973;28;20063;-61
2023/08/15 11:26:40;;;;;;;5.95;5.35;;;29.60;99.90;;;;;;5070894;28;20072;-62
2023/08/15 11:29:09;;;;;;;5.90;5.03;;;29.60;99.90;;;;;;5070096;28;20143;-61
2023/08/15 11:31:36;;;;;;;7.18;5.18;;;29.70;99.90;;;;;;5070428;28;20037;-62
2023/08/15 11:34:05;;;;;;;5.47;4.97;;;29.60;99.90;;;;;;5065011;28;20037;-64
2023/08/15 11:36:31;;;;;;;5.65;5.15;;;29.70;99.90;;;;;;5070691;28;20121;-62
2023/08/15 11:39:01;;;;;;;;;;;29.70;99.90;;;;;;5070056;28;20051;-61
2023/08/15 11:41:28;;;;;;;7.30;5.30;;;29.60;99.90;;;;;;5070316;28;19924;-62
2023/08/15 11:43:56;;;;;;;6.80;5.07;;;29.70;99.90;;;;;;5063999;28;20036;-62
2023/08/15 11:46:24;;;;;;;4.95;4.45;;;29.60;99.90;;;;;;5067962;28;20043;-63
2023/08/15 11:48:54;;;;;;;6.00;4.95;;;29.70;99.90;;;;;;5071499;28;20117;-62
2023/08/15 11:51:21;;;;;;;;;;;29.70;99.90;;;;;;5070077;28;20043;-62
2023/08/15 11:53:52;;;;;;;6.70;5.07;;;29.70;99.90;;;;;;5070837;28;19924;-62
2023/08/15 11:56:20;;;;;;;5.53;4.93;;;29.80;99.90;;;;;;5060933;28;20064;-62
2023/08/15 11:58:47;;;;;;;7.20;4.82;;;30.00;99.90;;;;;;5069841;28;20135;-63
2023/08/15 12:01:14;;;;;;;5.05;4.55;;;30.10;99.90;;;;;;5068792;28;20117;-64
2023/08/15 12:03:41;;;;;;;5.53;5.03;;;30.20;99.90;;;;;;5069310;28;20040;-64
2023/08/15 12:06:13;;;;;;;5.10;4.60;;;30.10;99.90;;;;;;5051081;28;20413;-63
2023/08/15 12:08:43;;;;;;;5.18;4.63;;;30.10;99.90;;;;;;5070674;28;20622;-63
2023/08/15 12:11:12;;;;;;;6.13;4.60;;;30.10;99.90;;;;;;5069712;28;20044;-63
2023/08/15 12:13:40;;;;;;;5.57;5.05;;;30.30;99.90;;;;;;5068551;28;20064;-62
2023/08/15 12:16:09;;;;;;;9.48;4.85;;;30.40;99.90;;;;;;5066695;28;20489;-62
2023/08/15 12:18:39;;;;;;;7.07;5.03;;;30.40;99.90;;;;;;5068640;28;20045;-61
2023/08/15 12:21:07;;;;;;;5.60;5.10;;;30.20;99.90;;;;;;5069459;28;20124;-60
2023/08/15 12:23:37;;;;;;;8.80;5.25;;;30.10;99.90;;;;;;5068156;28;20040;-61
2023/08/15 12:26:03;;;;;;;5.63;5.13;;;30.00;99.90;;;;;;5068060;28;20123;-61
2023/08/15 12:28:30;;;;;;;8.70;5.80;;;29.90;99.90;;;;;;5067792;28;20036;-61
2023/08/15 12:30:57;;;;;;;8.43;5.70;;;30.00;99.90;;;;;;5067400;28;20041;-61
2023/08/15 12:33:24;;;;;;;7.78;5.00;;;30.00;99.90;;;;;;5069299;28;20090;-60
2023/08/15 12:35:54;;;;;;;9.10;5.28;;;30.00;99.90;;;;;;5065299;28;20045;-61
2023/08/15 12:38:21;;;;;;;;;;;30.00;99.90;;;;;;5067363;28;20067;-60
2023/08/15 12:40:47;;;;;;;6.32;5.35;;;30.10;99.90;;;;;;5067711;28;19959;-60
2023/08/15 12:43:14;;;;;;;;;;;30.20;99.90;;;;;;5077509;22;20040;-62
2023/08/15 12:45:41;;;;;;;12.75;5.78;;;30.30;99.90;;;;;;5046156;28;20024;-61
2023/08/15 12:48:08;;;;;;;;;;;30.40;99.90;;;;;;5049454;28;20436;-62
2023/08/15 12:50:34;;;;;;;6.07;5.07;;;30.50;99.90;;;;;;5045073;28;19929;-62
2023/08/15 12:53:01;;;;;;;;;;;30.50;99.90;;;;;;5046727;28;20045;-61
2023/08/15 12:55:28;;;;;;;7.32;5.43;;;30.40;99.90;;;;;;5047427;28;19924;-61
2023/08/15 12:57:55;;;;;;;;;;;30.40;99.90;;;;;;5052971;28;20116;-62